This is the latest recevied weather packets stored in our database for station/object N9VPV. If no packets are shown the sender has not sent any weather packets the latest 10 day(s).
| Time | Temp. | Humidity | Pressure | Rain* | Wind** | Luminosity | Snow |
|---|---|---|---|---|---|---|---|
| 1777020671 | 15° C | 91% | 1003.9 hPa | 1.52 mm | - | 0 W/m² | - |
| 1777019766 | 15° C | 91% | 1004.5 hPa | 2.29 mm | - | 0 W/m² | - |
| 1777018863 | 15.56° C | 90% | 1005 hPa | 2.29 mm | - | 0 W/m² | - |
| 1777017973 | 15.56° C | 90% | 1005.6 hPa | 1.78 mm | - | 0 W/m² | - |
| 1777017060 | 15.56° C | 89% | 1004.9 hPa | 1.02 mm | - | 0 W/m² | - |
| 1777016156 | 16.11° C | 88% | 1004.9 hPa | 0.76 mm | - | 0 W/m² | - |
| 1777015238 | 16.11° C | 87% | 1005 hPa | 0.76 mm | - | 0 W/m² | - |
| 1777014339 | 17.22° C | 85% | 1004.6 hPa | 0.76 mm | - | 0 W/m² | - |
| 1777013436 | 18.33° C | 80% | 1004.6 hPa | 0.51 mm | - | 0 W/m² | - |
| 1777012536 | 19.44° C | 73% | 1004.6 hPa | 0 mm | - | 0 W/m² | - |
| 1777011636 | 21.67° C | 68% | 1004.5 hPa | 0 mm | - | 0 W/m² | - |
| 1777010736 | 21.67° C | 70% | 1003.5 hPa | 0 mm | - | 0 W/m² | - |
| 1777009837 | 22.22° C | 69% | 1003.6 hPa | 0 mm | - | 0 W/m² | - |
| 1777008936 | 22.22° C | 68% | 1003.6 hPa | 0 mm | - | 0 W/m² | - |
| 1777008035 | 22.22° C | 69% | 1003.7 hPa | 0 mm | - | 0 W/m² | - |
| 1777007134 | 22.22° C | 69% | 1003.7 hPa | 0 mm | - | 0 W/m² | - |
| 1777006233 | 21.67° C | 69% | 1003.5 hPa | 0 mm | - | 0 W/m² | - |
| 1777005333 | 22.22° C | 69% | 1003.4 hPa | 0 mm | - | 0 W/m² | - |
| 1777004433 | 22.22° C | 68% | 1003.3 hPa | 0 mm | - | 0 W/m² | - |
| 1777003533 | 22.22° C | 68% | 1003.3 hPa | 0 mm | - | 0 W/m² | - |
| 1777002633 | 22.78° C | 67% | 1003.3 hPa | 0 mm | - | 0 W/m² | - |
| 1777001733 | 22.78° C | 66% | 1003.4 hPa | 0 mm | - | 0 W/m² | - |
| 1777000835 | 23.33° C | 64% | 1003.5 hPa | 0 mm | - | 0 W/m² | - |
| 1776999928 | 23.89° C | 63% | 1003.5 hPa | 0 mm | - | 0 W/m² | - |
| 1776999025 | 23.89° C | 62% | 1003.5 hPa | 0 mm | - | 0 W/m² | - |
* Rain latest hour (hover to see other rain measurements)
** Current wind speed in m/s (hover to see current wind gust speed)